sensor_id;sensor_type;location;lat;lon;timestamp;P1;durP1;ratioP1;P2;durP2;ratioP2
16957;SDS011;8595;52.542;11.974;2023-08-08T00:01:34;6.22;;;2.60;;
16957;SDS011;8595;52.542;11.974;2023-08-08T00:04:01;11.13;;;3.17;;
16957;SDS011;8595;52.542;11.974;2023-08-08T00:06:29;4.60;;;2.45;;
16957;SDS011;8595;52.542;11.974;2023-08-08T00:08:56;5.70;;;3.00;;
16957;SDS011;8595;52.542;11.974;2023-08-08T00:11:23;7.03;;;2.60;;
16957;SDS011;8595;52.542;11.974;2023-08-08T00:13:50;5.13;;;2.45;;
16957;SDS011;8595;52.542;11.974;2023-08-08T00:16:16;4.63;;;3.03;;
16957;SDS011;8595;52.542;11.974;2023-08-08T00:18:43;4.45;;;2.90;;
16957;SDS011;8595;52.542;11.974;2023-08-08T00:21:10;7.00;;;2.33;;
16957;SDS011;8595;52.542;11.974;2023-08-08T00:23:38;7.28;;;2.60;;
16957;SDS011;8595;52.542;11.974;2023-08-08T00:26:05;5.20;;;2.50;;
16957;SDS011;8595;52.542;11.974;2023-08-08T00:28:32;5.15;;;2.65;;
16957;SDS011;8595;52.542;11.974;2023-08-08T00:30:58;4.85;;;2.65;;
16957;SDS011;8595;52.542;11.974;2023-08-08T00:33:25;5.28;;;2.55;;
16957;SDS011;8595;52.542;11.974;2023-08-08T00:35:52;7.63;;;2.38;;
16957;SDS011;8595;52.542;11.974;2023-08-08T00:38:19;5.35;;;2.90;;
16957;SDS011;8595;52.542;11.974;2023-08-08T00:40:47;7.10;;;2.78;;
16957;SDS011;8595;52.542;11.974;2023-08-08T00:43:14;3.78;;;1.98;;
16957;SDS011;8595;52.542;11.974;2023-08-08T00:45:41;9.50;;;2.95;;
16957;SDS011;8595;52.542;11.974;2023-08-08T00:48:09;5.57;;;3.25;;
16957;SDS011;8595;52.542;11.974;2023-08-08T00:50:36;6.25;;;2.53;;
16957;SDS011;8595;52.542;11.974;2023-08-08T00:53:04;5.90;;;2.75;;
16957;SDS011;8595;52.542;11.974;2023-08-08T00:55:31;7.80;;;2.60;;
16957;SDS011;8595;52.542;11.974;2023-08-08T00:57:59;4.78;;;2.92;;
16957;SDS011;8595;52.542;11.974;2023-08-08T01:00:26;5.80;;;3.00;;
16957;SDS011;8595;52.542;11.974;2023-08-08T01:02:53;5.35;;;2.90;;
16957;SDS011;8595;52.542;11.974;2023-08-08T01:05:23;4.80;;;2.72;;
16957;SDS011;8595;52.542;11.974;2023-08-08T01:07:57;7.18;;;3.08;;
16957;SDS011;8595;52.542;11.974;2023-08-08T01:10:31;5.25;;;2.72;;
16957;SDS011;8595;52.542;11.974;2023-08-08T01:13:04;6.85;;;3.10;;
16957;SDS011;8595;52.542;11.974;2023-08-08T01:15:34;6.57;;;2.53;;
16957;SDS011;8595;52.542;11.974;2023-08-08T01:18:03;6.07;;;3.10;;
16957;SDS011;8595;52.542;11.974;2023-08-08T01:20:31;5.07;;;2.63;;
16957;SDS011;8595;52.542;11.974;2023-08-08T01:23:03;5.72;;;3.00;;
16957;SDS011;8595;52.542;11.974;2023-08-08T01:25:37;4.22;;;2.78;;
16957;SDS011;8595;52.542;11.974;2023-08-08T01:28:06;7.32;;;3.33;;
16957;SDS011;8595;52.542;11.974;2023-08-08T01:30:33;8.02;;;3.08;;
16957;SDS011;8595;52.542;11.974;2023-08-08T01:33:00;5.38;;;3.00;;
16957;SDS011;8595;52.542;11.974;2023-08-08T01:35:34;8.07;;;3.08;;
16957;SDS011;8595;52.542;11.974;2023-08-08T01:38:08;7.78;;;2.58;;
16957;SDS011;8595;52.542;11.974;2023-08-08T01:40:38;6.50;;;3.20;;
16957;SDS011;8595;52.542;11.974;2023-08-08T01:43:09;5.95;;;3.33;;
16957;SDS011;8595;52.542;11.974;2023-08-08T01:45:36;6.47;;;3.45;;
16957;SDS011;8595;52.542;11.974;2023-08-08T01:48:09;6.72;;;3.05;;
16957;SDS011;8595;52.542;11.974;2023-08-08T01:50:36;7.72;;;3.28;;
16957;SDS011;8595;52.542;11.974;2023-08-08T01:53:04;7.90;;;3.35;;
16957;SDS011;8595;52.542;11.974;2023-08-08T01:55:31;5.68;;;2.70;;
16957;SDS011;8595;52.542;11.974;2023-08-08T01:57:59;6.35;;;3.20;;
16957;SDS011;8595;52.542;11.974;2023-08-08T02:00:26;9.23;;;3.28;;
16957;SDS011;8595;52.542;11.974;2023-08-08T02:02:53;3.55;;;3.13;;
16957;SDS011;8595;52.542;11.974;2023-08-08T02:05:20;3.60;;;3.05;;
16957;SDS011;8595;52.542;11.974;2023-08-08T02:07:47;8.00;;;3.40;;
16957;SDS011;8595;52.542;11.974;2023-08-08T02:10:13;4.85;;;3.15;;
16957;SDS011;8595;52.542;11.974;2023-08-08T02:12:40;5.40;;;3.30;;
16957;SDS011;8595;52.542;11.974;2023-08-08T02:15:08;8.45;;;3.97;;
16957;SDS011;8595;52.542;11.974;2023-08-08T02:17:35;7.30;;;3.42;;
16957;SDS011;8595;52.542;11.974;2023-08-08T02:20:04;6.75;;;3.28;;
16957;SDS011;8595;52.542;11.974;2023-08-08T02:22:32;3.58;;;2.78;;
16957;SDS011;8595;52.542;11.974;2023-08-08T02:24:59;6.25;;;3.25;;
16957;SDS011;8595;52.542;11.974;2023-08-08T02:27:26;3.95;;;2.83;;
16957;SDS011;8595;52.542;11.974;2023-08-08T02:29:53;5.47;;;3.50;;
16957;SDS011;8595;52.542;11.974;2023-08-08T02:32:21;7.35;;;3.72;;
16957;SDS011;8595;52.542;11.974;2023-08-08T02:34:48;7.15;;;3.13;;
16957;SDS011;8595;52.542;11.974;2023-08-08T02:37:14;5.35;;;3.03;;
16957;SDS011;8595;52.542;11.974;2023-08-08T02:39:41;10.20;;;4.10;;
16957;SDS011;8595;52.542;11.974;2023-08-08T02:42:08;9.02;;;3.50;;
16957;SDS011;8595;52.542;11.974;2023-08-08T02:44:35;5.55;;;2.88;;
16957;SDS011;8595;52.542;11.974;2023-08-08T02:47:02;6.43;;;3.60;;
16957;SDS011;8595;52.542;11.974;2023-08-08T02:49:31;8.02;;;3.30;;
16957;SDS011;8595;52.542;11.974;2023-08-08T02:51:58;6.82;;;3.67;;
16957;SDS011;8595;52.542;11.974;2023-08-08T02:54:25;4.05;;;2.75;;
16957;SDS011;8595;52.542;11.974;2023-08-08T02:56:52;5.30;;;3.25;;
16957;SDS011;8595;52.542;11.974;2023-08-08T02:59:18;6.32;;;3.58;;
16957;SDS011;8595;52.542;11.974;2023-08-08T03:01:46;6.13;;;3.50;;
16957;SDS011;8595;52.542;11.974;2023-08-08T03:04:13;5.72;;;3.08;;
16957;SDS011;8595;52.542;11.974;2023-08-08T03:06:41;6.10;;;3.70;;
16957;SDS011;8595;52.542;11.974;2023-08-08T03:09:08;6.30;;;3.50;;
16957;SDS011;8595;52.542;11.974;2023-08-08T03:11:34;6.45;;;3.90;;
16957;SDS011;8595;52.542;11.974;2023-08-08T03:14:02;4.63;;;2.88;;
16957;SDS011;8595;52.542;11.974;2023-08-08T03:16:29;4.30;;;3.30;;
16957;SDS011;8595;52.542;11.974;2023-08-08T03:18:56;4.90;;;3.38;;
16957;SDS011;8595;52.542;11.974;2023-08-08T03:21:23;6.53;;;3.15;;
16957;SDS011;8595;52.542;11.974;2023-08-08T03:23:51;4.75;;;3.20;;
16957;SDS011;8595;52.542;11.974;2023-08-08T03:26:19;6.22;;;3.42;;
16957;SDS011;8595;52.542;11.974;2023-08-08T03:28:49;4.80;;;3.55;;
16957;SDS011;8595;52.542;11.974;2023-08-08T03:31:18;6.10;;;3.45;;
16957;SDS011;8595;52.542;11.974;2023-08-08T03:33:45;8.25;;;3.50;;
16957;SDS011;8595;52.542;11.974;2023-08-08T03:36:13;6.50;;;3.70;;
16957;SDS011;8595;52.542;11.974;2023-08-08T03:38:39;6.57;;;3.25;;
16957;SDS011;8595;52.542;11.974;2023-08-08T03:41:10;5.57;;;3.25;;
16957;SDS011;8595;52.542;11.974;2023-08-08T03:43:37;9.10;;;4.03;;
16957;SDS011;8595;52.542;11.974;2023-08-08T03:46:04;4.85;;;3.08;;
16957;SDS011;8595;52.542;11.974;2023-08-08T03:48:31;7.30;;;3.33;;
16957;SDS011;8595;52.542;11.974;2023-08-08T03:50:58;5.03;;;3.25;;
16957;SDS011;8595;52.542;11.974;2023-08-08T03:53:25;6.47;;;3.40;;
16957;SDS011;8595;52.542;11.974;2023-08-08T03:55:53;5.90;;;3.30;;
16957;SDS011;8595;52.542;11.974;2023-08-08T03:58:23;6.32;;;3.58;;
16957;SDS011;8595;52.542;11.974;2023-08-08T04:00:50;5.78;;;3.67;;
16957;SDS011;8595;52.542;11.974;2023-08-08T04:03:18;5.60;;;3.28;;
16957;SDS011;8595;52.542;11.974;2023-08-08T04:05:45;6.97;;;3.72;;
16957;SDS011;8595;52.542;11.974;2023-08-08T04:08:12;5.28;;;3.10;;
16957;SDS011;8595;52.542;11.974;2023-08-08T04:10:39;6.35;;;3.53;;
16957;SDS011;8595;52.542;11.974;2023-08-08T04:13:06;4.15;;;2.75;;
16957;SDS011;8595;52.542;11.974;2023-08-08T04:15:34;7.15;;;3.40;;
16957;SDS011;8595;52.542;11.974;2023-08-08T04:18:01;8.27;;;3.65;;
16957;SDS011;8595;52.542;11.974;2023-08-08T04:20:31;6.45;;;3.63;;
16957;SDS011;8595;52.542;11.974;2023-08-08T04:23:01;7.45;;;4.05;;
16957;SDS011;8595;52.542;11.974;2023-08-08T04:25:28;8.43;;;3.35;;
16957;SDS011;8595;52.542;11.974;2023-08-08T04:27:55;6.75;;;3.80;;
16957;SDS011;8595;52.542;11.974;2023-08-08T04:30:22;6.68;;;3.63;;
16957;SDS011;8595;52.542;11.974;2023-08-08T04:32:50;5.72;;;3.63;;
16957;SDS011;8595;52.542;11.974;2023-08-08T04:35:17;5.10;;;4.18;;
16957;SDS011;8595;52.542;11.974;2023-08-08T04:37:44;6.55;;;4.10;;
16957;SDS011;8595;52.542;11.974;2023-08-08T04:40:11;5.72;;;3.63;;
16957;SDS011;8595;52.542;11.974;2023-08-08T04:42:37;5.50;;;3.58;;
16957;SDS011;8595;52.542;11.974;2023-08-08T04:45:05;6.65;;;3.72;;
16957;SDS011;8595;52.542;11.974;2023-08-08T04:47:32;4.97;;;3.47;;
16957;SDS011;8595;52.542;11.974;2023-08-08T04:50:01;5.57;;;3.72;;
16957;SDS011;8595;52.542;11.974;2023-08-08T04:52:29;6.75;;;3.72;;
16957;SDS011;8595;52.542;11.974;2023-08-08T04:54:56;6.93;;;3.90;;
16957;SDS011;8595;52.542;11.974;2023-08-08T04:57:23;8.07;;;4.00;;
16957;SDS011;8595;52.542;11.974;2023-08-08T04:59:50;6.50;;;3.92;;
16957;SDS011;8595;52.542;11.974;2023-08-08T05:02:17;7.25;;;3.70;;
16957;SDS011;8595;52.542;11.974;2023-08-08T05:04:44;6.10;;;4.18;;
16957;SDS011;8595;52.542;11.974;2023-08-08T05:07:12;5.43;;;3.60;;
16957;SDS011;8595;52.542;11.974;2023-08-08T05:09:39;5.05;;;3.83;;
16957;SDS011;8595;52.542;11.974;2023-08-08T05:12:06;11.00;;;4.00;;
16957;SDS011;8595;52.542;11.974;2023-08-08T05:14:33;8.90;;;3.53;;
16957;SDS011;8595;52.542;11.974;2023-08-08T05:17:01;5.45;;;2.97;;
16957;SDS011;8595;52.542;11.974;2023-08-08T05:19:28;11.65;;;4.53;;
16957;SDS011;8595;52.542;11.974;2023-08-08T05:21:55;6.47;;;3.35;;
16957;SDS011;8595;52.542;11.974;2023-08-08T05:24:23;5.35;;;4.25;;
16957;SDS011;8595;52.542;11.974;2023-08-08T05:26:50;5.28;;;3.67;;
16957;SDS011;8595;52.542;11.974;2023-08-08T05:29:18;8.40;;;4.43;;
16957;SDS011;8595;52.542;11.974;2023-08-08T05:31:46;6.00;;;4.15;;
16957;SDS011;8595;52.542;11.974;2023-08-08T05:34:14;5.40;;;3.78;;
16957;SDS011;8595;52.542;11.974;2023-08-08T05:36:40;6.28;;;3.65;;
16957;SDS011;8595;52.542;11.974;2023-08-08T05:39:08;6.05;;;3.53;;
16957;SDS011;8595;52.542;11.974;2023-08-08T05:41:36;4.10;;;3.60;;
16957;SDS011;8595;52.542;11.974;2023-08-08T05:44:03;9.82;;;4.28;;
16957;SDS011;8595;52.542;11.974;2023-08-08T05:46:30;5.32;;;4.10;;
16957;SDS011;8595;52.542;11.974;2023-08-08T05:48:56;8.50;;;4.05;;
16957;SDS011;8595;52.542;11.974;2023-08-08T05:51:26;8.10;;;3.92;;
16957;SDS011;8595;52.542;11.974;2023-08-08T05:53:52;5.72;;;4.00;;
16957;SDS011;8595;52.542;11.974;2023-08-08T05:56:19;6.50;;;3.67;;
16957;SDS011;8595;52.542;11.974;2023-08-08T05:58:48;9.07;;;3.85;;
16957;SDS011;8595;52.542;11.974;2023-08-08T06:01:14;8.00;;;3.83;;
16957;SDS011;8595;52.542;11.974;2023-08-08T06:03:41;6.57;;;3.85;;
16957;SDS011;8595;52.542;11.974;2023-08-08T06:06:08;7.30;;;4.07;;
16957;SDS011;8595;52.542;11.974;2023-08-08T06:08:35;8.23;;;3.67;;
16957;SDS011;8595;52.542;11.974;2023-08-08T06:11:01;5.53;;;3.20;;
16957;SDS011;8595;52.542;11.974;2023-08-08T06:13:28;7.00;;;4.00;;
16957;SDS011;8595;52.542;11.974;2023-08-08T06:15:56;7.68;;;3.65;;
16957;SDS011;8595;52.542;11.974;2023-08-08T06:18:23;6.70;;;4.50;;
16957;SDS011;8595;52.542;11.974;2023-08-08T06:20:50;8.00;;;3.90;;
16957;SDS011;8595;52.542;11.974;2023-08-08T06:23:17;7.18;;;3.65;;
16957;SDS011;8595;52.542;11.974;2023-08-08T06:25:44;9.85;;;3.88;;
16957;SDS011;8595;52.542;11.974;2023-08-08T06:28:11;6.32;;;3.95;;
16957;SDS011;8595;52.542;11.974;2023-08-08T06:30:37;7.05;;;3.85;;
16957;SDS011;8595;52.542;11.974;2023-08-08T06:33:06;8.57;;;3.60;;
16957;SDS011;8595;52.542;11.974;2023-08-08T06:35:33;5.63;;;3.67;;
16957;SDS011;8595;52.542;11.974;2023-08-08T06:38:00;6.72;;;3.65;;
16957;SDS011;8595;52.542;11.974;2023-08-08T06:40:28;4.05;;;3.17;;
16957;SDS011;8595;52.542;11.974;2023-08-08T06:42:54;8.23;;;3.90;;
16957;SDS011;8595;52.542;11.974;2023-08-08T06:45:21;5.47;;;3.38;;
16957;SDS011;8595;52.542;11.974;2023-08-08T06:47:48;6.32;;;3.70;;
16957;SDS011;8595;52.542;11.974;2023-08-08T06:50:16;7.68;;;4.07;;
16957;SDS011;8595;52.542;11.974;2023-08-08T06:52:43;6.03;;;3.35;;
16957;SDS011;8595;52.542;11.974;2023-08-08T06:55:10;8.00;;;3.50;;
16957;SDS011;8595;52.542;11.974;2023-08-08T06:57:37;6.70;;;3.45;;
16957;SDS011;8595;52.542;11.974;2023-08-08T07:00:05;5.65;;;3.45;;
16957;SDS011;8595;52.542;11.974;2023-08-08T07:02:33;5.97;;;3.13;;
16957;SDS011;8595;52.542;11.974;2023-08-08T07:05:00;6.28;;;3.42;;
16957;SDS011;8595;52.542;11.974;2023-08-08T07:07:30;5.78;;;3.72;;
16957;SDS011;8595;52.542;11.974;2023-08-08T07:09:58;9.73;;;3.78;;
16957;SDS011;8595;52.542;11.974;2023-08-08T07:12:25;6.20;;;3.58;;
16957;SDS011;8595;52.542;11.974;2023-08-08T07:14:52;6.93;;;3.50;;
16957;SDS011;8595;52.542;11.974;2023-08-08T07:17:18;5.60;;;3.00;;
16957;SDS011;8595;52.542;11.974;2023-08-08T07:19:45;7.90;;;3.20;;
16957;SDS011;8595;52.542;11.974;2023-08-08T07:22:12;4.75;;;3.47;;
16957;SDS011;8595;52.542;11.974;2023-08-08T07:24:40;9.85;;;3.60;;
16957;SDS011;8595;52.542;11.974;2023-08-08T07:27:07;8.32;;;3.15;;
16957;SDS011;8595;52.542;11.974;2023-08-08T07:29:33;7.95;;;3.53;;
16957;SDS011;8595;52.542;11.974;2023-08-08T07:32:02;4.72;;;2.78;;
16957;SDS011;8595;52.542;11.974;2023-08-08T07:34:30;3.70;;;3.03;;
16957;SDS011;8595;52.542;11.974;2023-08-08T07:36:57;7.15;;;3.03;;
16957;SDS011;8595;52.542;11.974;2023-08-08T07:39:28;6.10;;;3.55;;
16957;SDS011;8595;52.542;11.974;2023-08-08T07:41:56;7.57;;;3.63;;
16957;SDS011;8595;52.542;11.974;2023-08-08T07:44:23;7.35;;;3.47;;
16957;SDS011;8595;52.542;11.974;2023-08-08T07:46:51;6.05;;;3.15;;
16957;SDS011;8595;52.542;11.974;2023-08-08T07:49:18;6.95;;;3.50;;
16957;SDS011;8595;52.542;11.974;2023-08-08T07:51:44;8.90;;;3.20;;
16957;SDS011;8595;52.542;11.974;2023-08-08T07:54:11;6.18;;;3.25;;
16957;SDS011;8595;52.542;11.974;2023-08-08T07:56:38;7.78;;;3.88;;
16957;SDS011;8595;52.542;11.974;2023-08-08T07:59:06;6.43;;;3.28;;
16957;SDS011;8595;52.542;11.974;2023-08-08T08:01:35;6.53;;;3.35;;
16957;SDS011;8595;52.542;11.974;2023-08-08T08:04:02;4.53;;;2.95;;
16957;SDS011;8595;52.542;11.974;2023-08-08T08:06:29;45.88;;;3.90;;
16957;SDS011;8595;52.542;11.974;2023-08-08T08:08:56;6.15;;;3.08;;
16957;SDS011;8595;52.542;11.974;2023-08-08T08:11:23;9.38;;;3.72;;
16957;SDS011;8595;52.542;11.974;2023-08-08T08:13:50;6.88;;;2.88;;
16957;SDS011;8595;52.542;11.974;2023-08-08T08:16:19;9.70;;;3.05;;
16957;SDS011;8595;52.542;11.974;2023-08-08T08:18:46;8.10;;;3.40;;
16957;SDS011;8595;52.542;11.974;2023-08-08T08:21:13;10.40;;;3.25;;
16957;SDS011;8595;52.542;11.974;2023-08-08T08:23:42;5.82;;;3.42;;
16957;SDS011;8595;52.542;11.974;2023-08-08T08:26:09;6.18;;;3.20;;
16957;SDS011;8595;52.542;11.974;2023-08-08T08:28:36;9.13;;;3.70;;
16957;SDS011;8595;52.542;11.974;2023-08-08T08:31:03;8.13;;;3.38;;
16957;SDS011;8595;52.542;11.974;2023-08-08T08:33:32;4.80;;;2.90;;
16957;SDS011;8595;52.542;11.974;2023-08-08T08:35:58;7.13;;;3.67;;
16957;SDS011;8595;52.542;11.974;2023-08-08T08:38:25;6.10;;;3.13;;
16957;SDS011;8595;52.542;11.974;2023-08-08T08:40:52;6.38;;;3.60;;
16957;SDS011;8595;52.542;11.974;2023-08-08T08:43:22;5.63;;;3.55;;
16957;SDS011;8595;52.542;11.974;2023-08-08T08:45:50;8.48;;;3.40;;
16957;SDS011;8595;52.542;11.974;2023-08-08T08:48:18;6.65;;;3.58;;
16957;SDS011;8595;52.542;11.974;2023-08-08T08:50:48;5.63;;;3.10;;
16957;SDS011;8595;52.542;11.974;2023-08-08T08:53:15;5.57;;;3.00;;
16957;SDS011;8595;52.542;11.974;2023-08-08T08:55:43;12.15;;;2.72;;
16957;SDS011;8595;52.542;11.974;2023-08-08T08:58:11;5.97;;;2.50;;
16957;SDS011;8595;52.542;11.974;2023-08-08T09:00:41;6.68;;;2.95;;
16957;SDS011;8595;52.542;11.974;2023-08-08T09:03:10;3.92;;;2.85;;
16957;SDS011;8595;52.542;11.974;2023-08-08T09:05:38;5.80;;;2.95;;
16957;SDS011;8595;52.542;11.974;2023-08-08T09:08:08;5.93;;;2.90;;
16957;SDS011;8595;52.542;11.974;2023-08-08T09:10:36;5.32;;;2.53;;
16957;SDS011;8595;52.542;11.974;2023-08-08T09:13:04;6.85;;;2.85;;
16957;SDS011;8595;52.542;11.974;2023-08-08T09:15:31;5.13;;;3.05;;
16957;SDS011;8595;52.542;11.974;2023-08-08T09:17:58;4.32;;;3.08;;
16957;SDS011;8595;52.542;11.974;2023-08-08T09:20:25;7.47;;;3.03;;
16957;SDS011;8595;52.542;11.974;2023-08-08T09:22:53;5.50;;;3.13;;
16957;SDS011;8595;52.542;11.974;2023-08-08T09:25:22;6.15;;;3.40;;
16957;SDS011;8595;52.542;11.974;2023-08-08T09:27:50;6.28;;;3.30;;
16957;SDS011;8595;52.542;11.974;2023-08-08T09:30:17;10.05;;;3.83;;
16957;SDS011;8595;52.542;11.974;2023-08-08T09:32:44;5.53;;;3.13;;
16957;SDS011;8595;52.542;11.974;2023-08-08T09:35:11;15.05;;;3.72;;
16957;SDS011;8595;52.542;11.974;2023-08-08T09:37:38;8.32;;;3.22;;
16957;SDS011;8595;52.542;11.974;2023-08-08T09:40:05;3.58;;;2.72;;
16957;SDS011;8595;52.542;11.974;2023-08-08T09:42:37;5.38;;;3.08;;
16957;SDS011;8595;52.542;11.974;2023-08-08T09:45:07;4.30;;;3.40;;
16957;SDS011;8595;52.542;11.974;2023-08-08T09:47:36;4.72;;;3.00;;
16957;SDS011;8595;52.542;11.974;2023-08-08T09:50:04;7.20;;;3.13;;
16957;SDS011;8595;52.542;11.974;2023-08-08T09:52:33;4.25;;;2.80;;
16957;SDS011;8595;52.542;11.974;2023-08-08T09:55:01;4.88;;;2.65;;
16957;SDS011;8595;52.542;11.974;2023-08-08T09:57:29;6.55;;;3.00;;
16957;SDS011;8595;52.542;11.974;2023-08-08T09:59:57;6.70;;;2.92;;
16957;SDS011;8595;52.542;11.974;2023-08-08T10:02:25;7.35;;;3.30;;
16957;SDS011;8595;52.542;11.974;2023-08-08T10:04:52;5.78;;;2.63;;
16957;SDS011;8595;52.542;11.974;2023-08-08T10:07:23;5.85;;;2.80;;
16957;SDS011;8595;52.542;11.974;2023-08-08T10:09:50;7.03;;;3.03;;
16957;SDS011;8595;52.542;11.974;2023-08-08T10:12:17;5.22;;;3.08;;
16957;SDS011;8595;52.542;11.974;2023-08-08T10:14:44;10.38;;;3.47;;
16957;SDS011;8595;52.542;11.974;2023-08-08T10:17:14;8.30;;;2.80;;
16957;SDS011;8595;52.542;11.974;2023-08-08T10:19:49;5.13;;;3.00;;
16957;SDS011;8595;52.542;11.974;2023-08-08T10:22:24;6.28;;;3.17;;
16957;SDS011;8595;52.542;11.974;2023-08-08T10:24:51;6.13;;;3.42;;
16957;SDS011;8595;52.542;11.974;2023-08-08T10:27:30;7.20;;;2.92;;
16957;SDS011;8595;52.542;11.974;2023-08-08T10:30:04;3.78;;;2.95;;
16957;SDS011;8595;52.542;11.974;2023-08-08T10:32:39;7.50;;;3.03;;
16957;SDS011;8595;52.542;11.974;2023-08-08T10:35:06;5.32;;;2.80;;
16957;SDS011;8595;52.542;11.974;2023-08-08T10:37:34;4.63;;;2.45;;
16957;SDS011;8595;52.542;11.974;2023-08-08T10:40:02;8.50;;;2.88;;
16957;SDS011;8595;52.542;11.974;2023-08-08T10:42:31;4.38;;;2.38;;
16957;SDS011;8595;52.542;11.974;2023-08-08T10:44:59;5.03;;;3.38;;
16957;SDS011;8595;52.542;11.974;2023-08-08T10:47:30;7.18;;;2.83;;
16957;SDS011;8595;52.542;11.974;2023-08-08T10:50:02;6.32;;;3.03;;
16957;SDS011;8595;52.542;11.974;2023-08-08T10:52:31;3.97;;;2.70;;
16957;SDS011;8595;52.542;11.974;2023-08-08T10:55:00;3.92;;;2.30;;
16957;SDS011;8595;52.542;11.974;2023-08-08T10:57:27;4.05;;;2.42;;
16957;SDS011;8595;52.542;11.974;2023-08-08T11:00:15;6.30;;;2.70;;
16957;SDS011;8595;52.542;11.974;2023-08-08T11:02:43;3.38;;;2.30;;
16957;SDS011;8595;52.542;11.974;2023-08-08T11:05:15;4.15;;;2.63;;
16957;SDS011;8595;52.542;11.974;2023-08-08T11:07:42;6.50;;;2.58;;
16957;SDS011;8595;52.542;11.974;2023-08-08T11:10:09;5.68;;;2.08;;
16957;SDS011;8595;52.542;11.974;2023-08-08T11:12:37;4.75;;;2.13;;
16957;SDS011;8595;52.542;11.974;2023-08-08T11:15:06;4.63;;;2.40;;
16957;SDS011;8595;52.542;11.974;2023-08-08T11:17:34;2.75;;;2.03;;
16957;SDS011;8595;52.542;11.974;2023-08-08T11:20:02;4.55;;;2.38;;
16957;SDS011;8595;52.542;11.974;2023-08-08T11:22:31;10.88;;;2.60;;
16957;SDS011;8595;52.542;11.974;2023-08-08T11:24:58;6.72;;;2.58;;
16957;SDS011;8595;52.542;11.974;2023-08-08T11:27:28;3.83;;;2.35;;
16957;SDS011;8595;52.542;11.974;2023-08-08T11:29:56;6.80;;;3.15;;
16957;SDS011;8595;52.542;11.974;2023-08-08T11:32:23;4.93;;;2.45;;
16957;SDS011;8595;52.542;11.974;2023-08-08T11:34:53;6.07;;;2.42;;
16957;SDS011;8595;52.542;11.974;2023-08-08T11:37:21;5.60;;;2.40;;
16957;SDS011;8595;52.542;11.974;2023-08-08T11:39:49;5.57;;;2.10;;
16957;SDS011;8595;52.542;11.974;2023-08-08T11:42:16;2.80;;;1.65;;
16957;SDS011;8595;52.542;11.974;2023-08-08T11:44:43;5.82;;;2.42;;
16957;SDS011;8595;52.542;11.974;2023-08-08T11:47:10;4.68;;;2.08;;
16957;SDS011;8595;52.542;11.974;2023-08-08T11:49:40;6.65;;;2.53;;
16957;SDS011;8595;52.542;11.974;2023-08-08T11:52:08;4.15;;;2.08;;
16957;SDS011;8595;52.542;11.974;2023-08-08T11:54:38;6.53;;;1.95;;
16957;SDS011;8595;52.542;11.974;2023-08-08T11:57:07;4.88;;;2.15;;
16957;SDS011;8595;52.542;11.974;2023-08-08T11:59:35;6.25;;;2.67;;
16957;SDS011;8595;52.542;11.974;2023-08-08T12:02:03;6.15;;;2.47;;
16957;SDS011;8595;52.542;11.974;2023-08-08T12:04:30;6.90;;;2.63;;
16957;SDS011;8595;52.542;11.974;2023-08-08T12:07:03;5.80;;;2.10;;
16957;SDS011;8595;52.542;11.974;2023-08-08T12:09:31;4.70;;;2.30;;
16957;SDS011;8595;52.542;11.974;2023-08-08T12:11:59;4.00;;;2.47;;
16957;SDS011;8595;52.542;11.974;2023-08-08T12:14:27;4.80;;;2.78;;
16957;SDS011;8595;52.542;11.974;2023-08-08T12:16:54;5.60;;;2.72;;
16957;SDS011;8595;52.542;11.974;2023-08-08T12:19:23;5.47;;;2.40;;
16957;SDS011;8595;52.542;11.974;2023-08-08T12:21:51;5.35;;;2.85;;
16957;SDS011;8595;52.542;11.974;2023-08-08T12:24:17;4.68;;;2.67;;
16957;SDS011;8595;52.542;11.974;2023-08-08T12:26:44;3.47;;;2.00;;
16957;SDS011;8595;52.542;11.974;2023-08-08T12:29:11;5.55;;;2.20;;
16957;SDS011;8595;52.542;11.974;2023-08-08T12:31:40;3.95;;;2.55;;
16957;SDS011;8595;52.542;11.974;2023-08-08T12:34:06;3.78;;;2.47;;
16957;SDS011;8595;52.542;11.974;2023-08-08T12:36:34;4.07;;;1.73;;
16957;SDS011;8595;52.542;11.974;2023-08-08T12:39:02;5.35;;;2.13;;
16957;SDS011;8595;52.542;11.974;2023-08-08T12:41:30;4.13;;;1.80;;
16957;SDS011;8595;52.542;11.974;2023-08-08T12:43:56;3.92;;;1.67;;
16957;SDS011;8595;52.542;11.974;2023-08-08T12:46:23;2.70;;;1.75;;
16957;SDS011;8595;52.542;11.974;2023-08-08T12:48:52;3.10;;;1.80;;
16957;SDS011;8595;52.542;11.974;2023-08-08T12:51:19;3.78;;;2.15;;
16957;SDS011;8595;52.542;11.974;2023-08-08T12:53:46;6.13;;;2.35;;
16957;SDS011;8595;52.542;11.974;2023-08-08T12:56:13;4.80;;;2.50;;
16957;SDS011;8595;52.542;11.974;2023-08-08T12:58:40;6.22;;;2.55;;
16957;SDS011;8595;52.542;11.974;2023-08-08T13:01:07;6.07;;;2.45;;
16957;SDS011;8595;52.542;11.974;2023-08-08T13:03:34;6.75;;;2.70;;
16957;SDS011;8595;52.542;11.974;2023-08-08T13:06:02;4.90;;;2.53;;
16957;SDS011;8595;52.542;11.974;2023-08-08T13:08:29;4.95;;;2.47;;
16957;SDS011;8595;52.542;11.974;2023-08-08T13:10:57;4.63;;;2.38;;
16957;SDS011;8595;52.542;11.974;2023-08-08T13:13:25;5.07;;;2.58;;
16957;SDS011;8595;52.542;11.974;2023-08-08T13:15:51;5.03;;;2.60;;
16957;SDS011;8595;52.542;11.974;2023-08-08T13:18:18;3.45;;;2.60;;
16957;SDS011;8595;52.542;11.974;2023-08-08T13:20:45;4.47;;;2.53;;
16957;SDS011;8595;52.542;11.974;2023-08-08T13:23:13;3.75;;;2.25;;
16957;SDS011;8595;52.542;11.974;2023-08-08T13:25:40;3.45;;;2.22;;
16957;SDS011;8595;52.542;11.974;2023-08-08T13:28:11;5.35;;;2.25;;
16957;SDS011;8595;52.542;11.974;2023-08-08T13:30:39;3.90;;;2.40;;
16957;SDS011;8595;52.542;11.974;2023-08-08T13:33:08;5.43;;;2.35;;
16957;SDS011;8595;52.542;11.974;2023-08-08T13:35:35;4.85;;;2.63;;
16957;SDS011;8595;52.542;11.974;2023-08-08T13:38:01;4.45;;;2.15;;
16957;SDS011;8595;52.542;11.974;2023-08-08T13:40:30;6.32;;;2.65;;
16957;SDS011;8595;52.542;11.974;2023-08-08T13:42:57;3.60;;;1.95;;
16957;SDS011;8595;52.542;11.974;2023-08-08T13:45:24;2.92;;;1.80;;
16957;SDS011;8595;52.542;11.974;2023-08-08T13:47:50;3.42;;;2.05;;
16957;SDS011;8595;52.542;11.974;2023-08-08T13:50:18;4.70;;;2.55;;
16957;SDS011;8595;52.542;11.974;2023-08-08T13:52:45;4.70;;;2.47;;
16957;SDS011;8595;52.542;11.974;2023-08-08T13:55:11;7.20;;;2.35;;
16957;SDS011;8595;52.542;11.974;2023-08-08T13:57:40;5.68;;;3.00;;
16957;SDS011;8595;52.542;11.974;2023-08-08T14:00:07;5.72;;;2.80;;
16957;SDS011;8595;52.542;11.974;2023-08-08T14:02:37;5.68;;;2.65;;
16957;SDS011;8595;52.542;11.974;2023-08-08T14:05:04;3.80;;;2.58;;
16957;SDS011;8595;52.542;11.974;2023-08-08T14:07:31;6.10;;;2.13;;
16957;SDS011;8595;52.542;11.974;2023-08-08T14:09:58;9.02;;;2.00;;
16957;SDS011;8595;52.542;11.974;2023-08-08T14:12:25;5.72;;;1.85;;
16957;SDS011;8595;52.542;11.974;2023-08-08T14:14:55;2.95;;;1.65;;
16957;SDS011;8595;52.542;11.974;2023-08-08T14:17:22;3.70;;;1.70;;
16957;SDS011;8595;52.542;11.974;2023-08-08T14:19:48;2.25;;;1.60;;
16957;SDS011;8595;52.542;11.974;2023-08-08T14:22:19;3.53;;;2.00;;
16957;SDS011;8595;52.542;11.974;2023-08-08T14:24:45;3.50;;;2.30;;
16957;SDS011;8595;52.542;11.974;2023-08-08T14:27:12;2.60;;;2.17;;
16957;SDS011;8595;52.542;11.974;2023-08-08T14:29:39;3.92;;;1.95;;
16957;SDS011;8595;52.542;11.974;2023-08-08T14:32:07;4.22;;;1.50;;
16957;SDS011;8595;52.542;11.974;2023-08-08T14:34:37;1.98;;;1.45;;
16957;SDS011;8595;52.542;11.974;2023-08-08T14:37:04;4.70;;;1.35;;
16957;SDS011;8595;52.542;11.974;2023-08-08T14:39:32;2.35;;;1.27;;
16957;SDS011;8595;52.542;11.974;2023-08-08T14:42:00;3.30;;;1.20;;
16957;SDS011;8595;52.542;11.974;2023-08-08T14:44:27;2.55;;;1.38;;
16957;SDS011;8595;52.542;11.974;2023-08-08T14:46:54;1.58;;;1.10;;
16957;SDS011;8595;52.542;11.974;2023-08-08T14:49:25;3.03;;;1.50;;
16957;SDS011;8595;52.542;11.974;2023-08-08T14:51:52;8.23;;;1.52;;